Time;durP1;ratioP1;P1;durP2;ratioP2;P2;SDS_P1;SDS_P2;PMS_P1;PMS_P2;Temp;Humidity;BMP_temperature;BMP_pressure;BME280_temperature;BME280_humidity;BME280_pressure;Samples;Min_cycle;Max_cycle;Signal;HPM_P1;HPM_P2
2023/02/17 00:02:21;;;;;;;21.85;13.80;;;;;;;;;;5108991;28;20506;-68
2023/02/17 00:04:46;;;;;;;19.45;10.88;;;;;;;;;;5108806;28;20407;-68
2023/02/17 00:07:13;;;;;;;14.25;10.07;;;;;;;;;;5091005;28;20396;-70
2023/02/17 00:09:38;;;;;;;18.85;11.38;;;;;;;;;;5109102;28;20089;-69
2023/02/17 00:12:05;;;;;;;18.48;11.45;;;;;;;;;;5108953;28;20525;-69
2023/02/17 00:14:31;;;;;;;20.25;11.68;;;;;;;;;;5057165;28;20081;-69
2023/02/17 00:16:57;;;;;;;21.80;11.95;;;;;;;;;;5108689;28;20038;-70
2023/02/17 00:19:23;;;;;;;14.93;11.90;;;;;;;;;;5108592;28;20032;-69
2023/02/17 00:21:49;;;;;;;18.02;10.80;;;;;;;;;;5090268;28;20061;-70
2023/02/17 00:24:15;;;;;;;16.63;11.70;;;;;;;;;;5108678;28;20059;-69
2023/02/17 00:26:41;;;;;;;18.42;12.00;;;;;;;;;;5090647;28;20051;-70
2023/02/17 00:29:07;;;;;;;23.65;15.23;;;;;;;;;;5112067;28;20069;-69
2023/02/17 00:31:33;;;;;;;18.92;11.13;;;;;;;;;;5094089;28;20059;-69
2023/02/17 00:34:00;;;;;;;21.15;13.40;;;;;;;;;;5093889;28;20499;-69
2023/02/17 00:36:26;;;;;;;21.55;13.80;;;;;;;;;;5112431;28;20045;-68
2023/02/17 00:38:52;;;;;;;16.92;10.13;;;;;;;;;;5093871;28;20031;-69
2023/02/17 00:41:20;;;;;;;25.20;13.48;;;;;;;;;;5077434;28;20043;-69
2023/02/17 00:43:47;;;;;;;16.85;10.98;;;;;;;;;;5112221;28;20122;-68
2023/02/17 00:46:14;;;;;;;13.80;11.32;;;;;;;;;;5112157;28;20047;-69
2023/02/17 00:48:40;;;;;;;15.88;11.25;;;;;;;;;;5077196;28;20046;-69
2023/02/17 00:51:06;;;;;;;17.08;11.05;;;;;;;;;;5111770;28;20036;-68
2023/02/17 00:53:33;;;;;;;17.83;12.43;;;;;;;;;;5094104;28;20031;-69
2023/02/17 00:55:59;;;;;;;19.08;12.70;;;;;;;;;;5111642;28;20406;-69
2023/02/17 00:58:25;;;;;;;16.05;12.15;;;;;;;;;;5093595;28;20035;-68
2023/02/17 01:00:51;;;;;;;15.77;11.75;;;;;;;;;;5111487;28;20040;-69
2023/02/17 01:03:17;;;;;;;21.90;11.60;;;;;;;;;;5111971;28;20491;-69
2023/02/17 01:05:44;;;;;;;21.05;13.30;;;;;;;;;;5093543;28;20452;-69
2023/02/17 01:08:10;;;;;;;18.63;12.18;;;;;;;;;;5111689;28;20499;-69
2023/02/17 01:10:39;;;;;;;22.48;12.77;;;;;;;;;;5111590;28;20035;-68
2023/02/17 01:13:05;;;;;;;21.50;12.68;;;;;;;;;;5111442;28;20141;-69
2023/02/17 01:15:31;;;;;;;28.13;15.00;;;;;;;;;;5111684;28;20582;-69
2023/02/17 01:17:58;;;;;;;25.77;16.27;;;;;;;;;;5111373;28;20032;-69
2023/02/17 01:20:23;;;;;;;27.38;16.63;;;;;;;;;;5111298;28;20031;-69
2023/02/17 01:22:50;;;;;;;28.45;17.88;;;;;;;;;;5111286;28;20089;-69
2023/02/17 01:25:16;;;;;;;28.98;17.23;;;;;;;;;;5111361;28;20035;-70
2023/02/17 01:27:42;;;;;;;16.95;12.45;;;;;;;;;;5111278;28;20046;-69
2023/02/17 01:30:08;;;;;;;21.00;13.63;;;;;;;;;;5110716;28;20059;-69
2023/02/17 01:32:35;;;;;;;24.40;14.77;;;;;;;;;;5093219;28;20042;-68
2023/02/17 01:35:01;;;;;;;20.27;12.10;;;;;;;;;;5092744;28;20456;-69
2023/02/17 01:37:28;;;;;;;17.42;11.95;;;;;;;;;;5076591;28;20036;-68
2023/02/17 01:39:54;;;;;;;23.75;11.73;;;;;;;;;;5110813;28;20403;-68
2023/02/17 01:42:20;;;;;;;19.00;11.55;;;;;;;;;;5111049;28;20036;-69
2023/02/17 01:45:06;;;;;;;19.40;11.82;;;;;;;;;;5110878;28;20085;-69
2023/02/17 01:47:32;;;;;;;17.85;11.30;;;;;;;;;;5092948;28;20506;-69
2023/02/17 01:49:58;;;;;;;21.98;13.68;;;;;;;;;;5098092;27;20096;-68
2023/02/17 01:52:25;;;;;;;22.85;13.20;;;;;;;;;;5131279;27;20038;-69
2023/02/17 01:54:58;;;;;;;24.98;15.07;;;;;;;;;;5131255;27;20106;-69
2023/02/17 01:57:26;;;;;;;19.45;14.25;;;;;;;;;;5131379;27;20066;-69
2023/02/17 01:59:52;;;;;;;24.88;14.77;;;;;;;;;;5095674;27;20477;-69
2023/02/17 02:02:18;;;;;;;21.27;13.23;;;;;;;;;;5112853;27;20074;-68
2023/02/17 02:04:45;;;;;;;21.05;13.25;;;;;;;;;;5112627;27;20100;-68
2023/02/17 02:07:19;;;;;;;31.02;17.98;;;;;;;;;;5131041;27;20453;-68
2023/02/17 02:09:46;;;;;;;29.17;16.98;;;;;;;;;;5130921;27;20075;-69
2023/02/17 02:12:19;;;;;;;28.25;14.45;;;;;;;;;;5112578;27;20035;-68
2023/02/17 02:14:46;;;;;;;31.17;18.02;;;;;;;;;;5112596;27;20031;-69
2023/02/17 02:17:18;;;;;;;27.02;17.08;;;;;;;;;;5130787;27;20103;-69
2023/02/17 02:19:44;;;;;;;26.13;15.68;;;;;;;;;;5112363;27;20046;-68
2023/02/17 02:22:29;;;;;;;26.15;14.73;;;;;;;;;;5130805;27;20035;-69
2023/02/17 02:25:02;;;;;;;29.85;17.83;;;;;;;;;;5095185;27;20095;-69
2023/02/17 02:27:45;;;;;;;27.48;15.73;;;;;;;;;;5129562;27;20532;-69
2023/02/17 02:30:17;;;;;;;25.00;15.23;;;;;;;;;;5130199;27;20062;-70
2023/02/17 02:32:47;;;;;;;26.35;13.15;;;;;;;;;;5095482;27;20031;-69
2023/02/17 02:35:14;;;;;;;19.60;12.90;;;;;;;;;;5095159;27;20636;-68
2023/02/17 02:37:45;;;;;;;24.15;13.48;;;;;;;;;;5095035;27;20041;-70
2023/02/17 02:40:12;;;;;;;19.67;13.45;;;;;;;;;;5111966;27;20550;-69
2023/02/17 02:42:38;;;;;;;25.20;13.98;;;;;;;;;;5112420;27;20495;-69
2023/02/17 02:45:08;;;;;;;29.40;13.38;;;;;;;;;;5111965;27;20035;-69
2023/02/17 02:48:10;;;;;;;21.83;13.10;;;;;;;;;;5095654;27;20593;-69
2023/02/17 02:50:56;;;;;;;17.95;12.38;;;;;;;;;;5078288;27;20050;-70
2023/02/17 02:53:42;;;;;;;23.60;13.77;;;;;;;;;;5095244;27;20586;-69
2023/02/17 02:56:35;;;;;;;22.98;14.52;;;;;;;;;;5111552;27;20039;-69
2023/02/17 02:59:11;;;;;;;20.65;13.27;;;;;;;;;;5113155;27;20031;-69
2023/02/17 03:01:41;;;;;;;24.92;15.75;;;;;;;;;;5125234;27;20049;-69
2023/02/17 03:04:07;;;;;;;30.03;15.00;;;;;;;;;;5110381;27;20037;-68
2023/02/17 03:06:38;;;;;;;24.77;15.75;;;;;;;;;;5099527;27;20273;-69
2023/02/17 03:09:06;;;;;;;29.42;16.13;;;;;;;;;;5103138;27;20034;-69
2023/02/17 03:11:32;;;;;;;21.65;13.52;;;;;;;;;;5102583;28;20039;-69
2023/02/17 03:14:06;;;;;;;22.23;14.18;;;;;;;;;;5097527;28;20035;-69
2023/02/17 03:16:36;;;;;;;17.92;12.07;;;;;;;;;;5059766;28;20092;-69
2023/02/17 03:19:05;;;;;;;18.42;13.75;;;;;;;;;;5111464;27;20023;-69
2023/02/17 03:21:38;;;;;;;20.67;12.20;;;;;;;;;;5108428;28;20049;-69
2023/02/17 03:24:05;;;;;;;22.42;13.88;;;;;;;;;;5088125;28;20046;-69
2023/02/17 03:26:31;;;;;;;22.00;11.65;;;;;;;;;;5091620;28;20133;-69
2023/02/17 03:28:57;;;;;;;23.15;14.05;;;;;;;;;;5077637;28;20073;-69
2023/02/17 03:31:23;;;;;;;20.30;12.70;;;;;;;;;;5107596;28;20051;-69
2023/02/17 03:33:49;;;;;;;20.83;13.85;;;;;;;;;;5108212;28;20046;-69
2023/02/17 03:36:15;;;;;;;27.50;17.08;;;;;;;;;;5108919;28;20085;-69
2023/02/17 03:38:41;;;;;;;29.52;14.75;;;;;;;;;;5109174;28;20542;-68
2023/02/17 03:41:07;;;;;;;30.63;17.15;;;;;;;;;;5108848;28;20042;-70
2023/02/17 03:43:34;;;;;;;28.90;18.23;;;;;;;;;;5098589;28;20078;-70
2023/02/17 03:46:00;;;;;;;23.60;13.73;;;;;;;;;;5097776;28;20052;-70
2023/02/17 03:48:26;;;;;;;18.77;13.18;;;;;;;;;;5097671;28;20565;-70
2023/02/17 03:50:52;;;;;;;27.23;14.52;;;;;;;;;;5097820;28;20067;-70
2023/02/17 03:53:18;;;;;;;19.58;13.20;;;;;;;;;;5112631;28;20028;-69
2023/02/17 03:55:44;;;;;;;16.08;11.40;;;;;;;;;;5096872;28;20035;-70
2023/02/17 03:58:10;;;;;;;18.50;13.98;;;;;;;;;;5097653;28;20035;-70
2023/02/17 04:00:36;;;;;;;31.25;16.48;;;;;;;;;;5096149;28;20028;-70
2023/02/17 04:03:02;;;;;;;30.05;17.90;;;;;;;;;;5098259;28;20026;-69
2023/02/17 04:05:28;;;;;;;37.22;22.25;;;;;;;;;;5116622;27;20028;-69
2023/02/17 04:07:54;;;;;;;28.02;13.60;;;;;;;;;;5100851;28;20038;-69
2023/02/17 04:10:21;;;;;;;34.28;17.85;;;;;;;;;;5101892;28;20048;-69
2023/02/17 04:12:47;;;;;;;37.28;18.48;;;;;;;;;;5100840;28;20051;-70
2023/02/17 04:15:13;;;;;;;27.15;14.15;;;;;;;;;;5104455;28;20039;-69
2023/02/17 04:17:39;;;;;;;15.23;11.75;;;;;;;;;;5101635;28;20031;-69
2023/02/17 04:20:05;;;;;;;18.95;12.10;;;;;;;;;;5098770;28;20028;-68
2023/02/17 04:22:31;;;;;;;22.48;13.15;;;;;;;;;;5099224;27;20126;-68
2023/02/17 04:24:57;;;;;;;16.40;10.52;;;;;;;;;;5098394;28;20114;-68
2023/02/17 04:27:24;;;;;;;18.08;12.25;;;;;;;;;;5099890;28;20036;-69
2023/02/17 04:29:50;;;;;;;19.80;10.57;;;;;;;;;;5101943;27;20126;-68
2023/02/17 04:32:16;;;;;;;18.85;11.45;;;;;;;;;;5120688;27;20039;-68
2023/02/17 04:34:42;;;;;;;25.85;13.80;;;;;;;;;;5122414;27;20050;-69
2023/02/17 04:37:08;;;;;;;19.23;12.57;;;;;;;;;;5118924;27;20027;-69
2023/02/17 04:39:34;;;;;;;14.68;10.70;;;;;;;;;;5103951;27;20034;-69
2023/02/17 04:42:00;;;;;;;19.02;13.82;;;;;;;;;;5119299;27;20509;-69
2023/02/17 04:44:26;;;;;;;18.80;13.43;;;;;;;;;;5117607;27;20123;-69
2023/02/17 04:46:53;;;;;;;21.73;13.05;;;;;;;;;;5118200;27;20043;-69
2023/02/17 04:49:19;;;;;;;23.85;13.68;;;;;;;;;;5120606;27;20140;-69
2023/02/17 04:51:45;;;;;;;39.78;21.40;;;;;;;;;;5122286;27;20510;-69
2023/02/17 04:54:11;;;;;;;25.50;14.85;;;;;;;;;;5120227;27;20038;-69
2023/02/17 04:56:37;;;;;;;18.67;13.75;;;;;;;;;;5093745;28;20046;-69
2023/02/17 04:59:03;;;;;;;24.98;13.68;;;;;;;;;;5111530;28;20039;-70
2023/02/17 05:01:42;;;;;;;20.25;12.82;;;;;;;;;;5111725;28;20031;-69
2023/02/17 05:04:14;;;;;;;23.42;13.02;;;;;;;;;;5111528;28;20142;-70
2023/02/17 05:06:40;;;;;;;21.05;12.88;;;;;;;;;;5110465;28;20054;-69
2023/02/17 05:09:09;;;;;;;19.05;13.00;;;;;;;;;;5123416;27;20130;-69
2023/02/17 05:11:38;;;;;;;25.02;13.15;;;;;;;;;;5132071;27;20122;-69
2023/02/17 05:14:04;;;;;;;16.70;11.60;;;;;;;;;;5113405;27;20130;-69
2023/02/17 05:16:41;;;;;;;16.92;11.27;;;;;;;;;;5132091;27;20031;-69
2023/02/17 05:19:13;;;;;;;16.08;11.93;;;;;;;;;;5113392;27;20035;-69
2023/02/17 05:21:40;;;;;;;12.88;11.18;;;;;;;;;;5128331;27;20027;-70
2023/02/17 05:24:06;;;;;;;24.52;13.93;;;;;;;;;;5115404;27;20163;-71
2023/02/17 05:26:32;;;;;;;17.15;11.40;;;;;;;;;;5131879;27;20031;-71
2023/02/17 05:28:58;;;;;;;22.23;13.52;;;;;;;;;;5131944;27;20038;-70
2023/02/17 05:31:25;;;;;;;19.50;12.48;;;;;;;;;;5131382;27;20062;-71
2023/02/17 05:33:52;;;;;;;18.17;12.77;;;;;;;;;;5131860;27;20047;-70
2023/02/17 05:36:19;;;;;;;13.68;11.60;;;;;;;;;;5131417;27;20043;-71
2023/02/17 05:38:48;;;;;;;25.83;16.10;;;;;;;;;;5098266;28;20123;-70
2023/02/17 05:41:23;;;;;;;31.77;17.30;;;;;;;;;;5100851;28;20042;-71
2023/02/17 05:43:49;;;;;;;23.25;12.93;;;;;;;;;;5110232;28;20027;-71
2023/02/17 05:46:14;;;;;;;19.13;11.20;;;;;;;;;;5109846;28;20040;-71
2023/02/17 05:48:41;;;;;;;18.35;11.43;;;;;;;;;;5110344;28;20077;-71
2023/02/17 05:51:07;;;;;;;19.80;13.95;;;;;;;;;;5109501;28;20044;-70
2023/02/17 05:53:33;;;;;;;19.63;12.68;;;;;;;;;;5091974;28;20030;-71
2023/02/17 05:56:00;;;;;;;29.73;15.63;;;;;;;;;;5110054;28;20114;-71
2023/02/17 05:58:28;;;;;;;21.52;12.18;;;;;;;;;;5091716;28;20795;-71
2023/02/17 06:00:55;;;;;;;24.50;14.30;;;;;;;;;;5091675;28;20038;-72
2023/02/17 06:03:20;;;;;;;25.88;13.48;;;;;;;;;;5074685;28;20121;-72
2023/02/17 06:05:46;;;;;;;25.77;15.15;;;;;;;;;;5091697;28;20567;-71
2023/02/17 06:08:12;;;;;;;23.02;14.75;;;;;;;;;;5091298;28;20407;-72
2023/02/17 06:10:40;;;;;;;21.02;13.13;;;;;;;;;;5109886;28;20048;-72
2023/02/17 06:13:05;;;;;;;7.88;6.43;;;;;;;;;;5109678;28;20080;-72
2023/02/17 06:15:32;;;;;;;14.27;9.82;;;;;;;;;;5109846;28;20043;-71
2023/02/17 06:17:58;;;;;;;27.08;16.52;;;;;;;;;;5109856;28;20036;-71
2023/02/17 06:20:27;;;;;;;10.27;9.00;;;;;;;;;;5090969;28;20032;-71
2023/02/17 06:22:53;;;;;;;17.00;12.75;;;;;;;;;;5109723;28;20043;-71
2023/02/17 06:25:22;;;;;;;20.38;13.32;;;;;;;;;;5108873;28;20039;-70
2023/02/17 06:27:49;;;;;;;23.55;14.30;;;;;;;;;;5109683;28;20027;-70
2023/02/17 06:30:16;;;;;;;32.47;19.42;;;;;;;;;;5090612;28;20687;-70
2023/02/17 06:32:42;;;;;;;29.70;19.45;;;;;;;;;;5091275;28;20035;-70
2023/02/17 06:35:08;;;;;;;22.52;13.93;;;;;;;;;;5109064;28;20499;-70
2023/02/17 06:37:34;;;;;;;23.67;15.02;;;;;;;;;;5109272;28;20038;-70
2023/02/17 06:40:00;;;;;;;21.60;13.15;;;;;;;;;;5091024;28;20059;-70
2023/02/17 06:42:26;;;;;;;19.08;12.73;;;;;;;;;;5090653;28;20039;-69
2023/02/17 06:44:52;;;;;;;24.92;17.17;;;;;;;;;;5109290;28;20111;-69
2023/02/17 06:47:18;;;;;;;23.60;17.13;;;;;;;;;;5109157;28;20036;-70
2023/02/17 06:49:44;;;;;;;18.17;10.90;;;;;;;;;;5074291;28;20038;-70
2023/02/17 06:52:11;;;;;;;7.68;6.90;;;;;;;;;;5119951;27;20035;-69
2023/02/17 06:54:37;;;;;;;13.35;11.10;;;;;;;;;;5111385;27;20026;-69
2023/02/17 06:57:03;;;;;;;12.63;8.82;;;;;;;;;;5129660;27;20038;-69
2023/02/17 06:59:30;;;;;;;18.13;11.63;;;;;;;;;;5129346;27;20031;-70
2023/02/17 07:01:56;;;;;;;16.20;11.93;;;;;;;;;;5129489;27;20058;-69
2023/02/17 07:04:25;;;;;;;12.75;11.18;;;;;;;;;;5093644;27;20062;-70
2023/02/17 07:06:51;;;;;;;18.10;13.10;;;;;;;;;;5109406;27;20151;-71
2023/02/17 07:09:17;;;;;;;13.55;8.05;;;;;;;;;;5110696;27;20499;-71
2023/02/17 07:11:44;;;;;;;14.70;11.02;;;;;;;;;;5129276;27;20130;-71
2023/02/17 07:14:10;;;;;;;15.02;11.43;;;;;;;;;;5129062;27;20057;-73
2023/02/17 07:16:36;;;;;;;13.98;10.13;;;;;;;;;;5111036;28;20037;-72
2023/02/17 07:19:02;;;;;;;8.23;7.38;;;;;;;;;;5128200;27;20031;-73
2023/02/17 07:21:28;;;;;;;14.05;10.38;;;;;;;;;;5123052;27;20031;-71
2023/02/17 07:23:54;;;;;;;10.80;9.25;;;;;;;;;;5077158;28;20046;-70
2023/02/17 07:26:20;;;;;;;11.35;9.90;;;;;;;;;;5110818;28;20028;-72
2023/02/17 07:28:46;;;;;;;14.93;12.18;;;;;;;;;;5110899;28;20057;-71
2023/02/17 07:31:13;;;;;;;15.18;10.23;;;;;;;;;;5108720;28;20051;-71
2023/02/17 07:33:42;;;;;;;10.15;9.15;;;;;;;;;;5111446;28;20134;-71
2023/02/17 07:36:08;;;;;;;10.43;8.75;;;;;;;;;;5111354;27;20031;-71
2023/02/17 07:38:35;;;;;;;11.73;9.55;;;;;;;;;;5122736;27;20031;-72
2023/02/17 07:41:05;;;;;;;14.20;10.02;;;;;;;;;;5112778;28;20059;-72
2023/02/17 07:43:31;;;;;;;13.20;10.90;;;;;;;;;;5112673;28;20039;-71
2023/02/17 07:45:59;;;;;;;16.52;11.98;;;;;;;;;;5094418;28;20031;-72
2023/02/17 07:48:26;;;;;;;11.70;8.93;;;;;;;;;;5112415;28;20499;-72
2023/02/17 07:50:52;;;;;;;7.30;6.60;;;;;;;;;;5094250;28;20097;-71
2023/02/17 07:53:18;;;;;;;10.90;7.72;;;;;;;;;;5112388;28;20036;-72
2023/02/17 07:55:44;;;;;;;15.23;9.68;;;;;;;;;;5094263;28;20578;-72
2023/02/17 07:58:10;;;;;;;8.90;6.45;;;;;;;;;;5112751;27;20089;-71
2023/02/17 08:00:36;;;;;;;13.05;9.55;;;;;;;;;;5112392;28;20148;-70
2023/02/17 08:03:02;;;;;;;12.88;10.02;;;;;;;;;;5112273;28;20064;-71
2023/02/17 08:05:28;;;;;;;11.05;9.00;;;;;;;;;;5112181;28;20459;-71
2023/02/17 08:13:24;;;;;;;11.23;9.27;;;;;;;;;;5094828;27;20509;-71
2023/02/17 08:15:50;;;;;;;12.85;9.40;;;;;;;;;;5132451;27;20056;-71
2023/02/17 08:18:16;;;;;;;8.55;7.38;;;;;;;;;;5129952;27;20047;-71
2023/02/17 08:20:42;;;;;;;8.95;7.93;;;;;;;;;;5125621;27;20039;-70
2023/02/17 08:23:08;;;;;;;9.48;8.25;;;;;;;;;;5111940;28;20032;-70
2023/02/17 08:25:34;;;;;;;10.07;8.88;;;;;;;;;;5111802;28;20526;-71
2023/02/17 08:28:00;;;;;;;10.57;8.00;;;;;;;;;;5111675;28;20061;-70
2023/02/17 08:30:26;;;;;;;8.05;7.00;;;;;;;;;;5093099;28;20055;-71
2023/02/17 08:32:52;;;;;;;8.68;7.82;;;;;;;;;;5062607;27;20485;-70
2023/02/17 08:35:21;;;;;;;5.32;4.93;;;;;;;;;;5100076;28;20071;-71
2023/02/17 08:37:48;;;;;;;11.65;7.80;;;;;;;;;;5110943;27;20032;-71
2023/02/17 08:40:14;;;;;;;6.30;5.78;;;;;;;;;;5093055;28;20027;-70
2023/02/17 08:42:43;;;;;;;7.15;6.53;;;;;;;;;;5124897;27;20032;-69
2023/02/17 08:45:09;;;;;;;10.60;8.32;;;;;;;;;;5123055;27;20537;-70
2023/02/17 08:47:35;;;;;;;3.22;3.03;;;;;;;;;;5111787;27;20059;-69
2023/02/17 08:50:03;;;;;;;7.22;6.60;;;;;;;;;;5104168;27;20027;-69
2023/02/17 08:52:29;;;;;;;9.27;7.97;;;;;;;;;;5111688;27;20035;-71
2023/02/17 08:54:58;;;;;;;9.75;8.75;;;;;;;;;;5091304;28;20052;-70
2023/02/17 08:57:25;;;;;;;8.48;7.65;;;;;;;;;;5116383;27;20425;-70
2023/02/17 08:59:52;;;;;;;11.38;8.68;;;;;;;;;;5096011;27;20763;-70
2023/02/17 09:02:18;;;;;;;9.80;7.57;;;;;;;;;;5123790;27;20103;-70
2023/02/17 09:04:44;;;;;;;7.13;6.43;;;;;;;;;;5092618;28;20551;-70
2023/02/17 09:07:11;;;;;;;9.48;7.40;;;;;;;;;;5130531;27;20031;-69
2023/02/17 09:09:36;;;;;;;12.07;8.52;;;;;;;;;;5094905;27;20128;-70
2023/02/17 09:12:03;;;;;;;9.10;8.10;;;;;;;;;;5108629;28;20172;-70
2023/02/17 09:14:29;;;;;;;6.15;5.63;;;;;;;;;;5114145;27;20050;-70
2023/02/17 09:16:55;;;;;;;6.07;5.55;;;;;;;;;;5104591;27;20035;-70
2023/02/17 09:19:21;;;;;;;7.15;6.50;;;;;;;;;;5112043;27;20073;-71
2023/02/17 09:21:47;;;;;;;10.48;7.38;;;;;;;;;;5099092;28;20110;-70
2023/02/17 09:24:13;;;;;;;8.23;7.22;;;;;;;;;;5092254;28;20047;-70
2023/02/17 09:26:39;;;;;;;8.82;7.93;;;;;;;;;;5104855;27;20027;-70
2023/02/17 09:29:05;;;;;;;5.90;5.40;;;;;;;;;;5110848;27;20080;-70
2023/02/17 09:31:32;;;;;;;9.27;8.20;;;;;;;;;;5122360;27;20054;-71
2023/02/17 09:33:58;;;;;;;6.43;5.82;;;;;;;;;;5107772;27;20529;-71
2023/02/17 09:36:26;;;;;;;8.90;5.72;;;;;;;;;;5094099;27;20133;-70
2023/02/17 09:38:52;;;;;;;5.55;5.13;;;;;;;;;;5123406;27;20027;-70
2023/02/17 09:41:20;;;;;;;7.00;6.30;;;;;;;;;;5091596;28;20042;-70
2023/02/17 09:43:46;;;;;;;6.35;5.25;;;;;;;;;;5105572;27;20804;-71
2023/02/17 09:46:31;;;;;;;6.93;5.00;;;;;;;;;;5119533;27;20126;-70
2023/02/17 09:48:59;;;;;;;8.23;6.38;;;;;;;;;;5094837;27;20437;-71
2023/02/17 09:51:32;;;;;;;9.30;8.38;;;;;;;;;;5111411;27;20054;-71
2023/02/17 09:54:10;;;;;;;6.22;5.72;;;;;;;;;;5099094;27;20118;-70
2023/02/17 09:56:37;;;;;;;8.40;7.43;;;;;;;;;;5103480;27;20031;-69
2023/02/17 09:59:27;;;;;;;8.05;6.65;;;;;;;;;;5108247;28;20023;-71
2023/02/17 10:01:53;;;;;;;8.93;6.93;;;;;;;;;;5095266;27;20059;-72
2023/02/17 10:04:23;;;;;;;5.57;5.13;;;;;;;;;;5100191;27;20129;-71
2023/02/17 10:06:50;;;;;;;7.35;6.60;;;;;;;;;;5090378;27;20035;-71
2023/02/17 10:09:23;;;;;;;7.90;6.97;;;;;;;;;;5097376;27;20028;-71
2023/02/17 10:11:48;;;;;;;6.38;5.78;;;;;;;;;;5115468;27;20040;-71
2023/02/17 10:14:16;;;;;;;12.43;7.20;;;;;;;;;;5107539;27;20176;-72
2023/02/17 10:16:46;;;;;;;6.57;5.22;;;;;;;;;;5106891;27;20185;-73
2023/02/17 10:19:17;;;;;;;7.30;6.57;;;;;;;;;;5109084;27;20042;-71
2023/02/17 10:21:45;;;;;;;10.32;7.85;;;;;;;;;;5109785;27;20031;-71
2023/02/17 10:24:11;;;;;;;9.13;7.10;;;;;;;;;;5104742;27;20103;-71
2023/02/17 10:26:40;;;;;;;11.25;8.57;;;;;;;;;;5119816;27;20027;-71
2023/02/17 10:29:13;;;;;;;9.38;8.48;;;;;;;;;;5114772;27;20031;-71
2023/02/17 10:31:44;;;;;;;11.05;9.05;;;;;;;;;;5103459;28;20059;-71
2023/02/17 10:34:21;;;;;;;16.65;8.90;;;;;;;;;;5100286;28;20048;-72
2023/02/17 10:36:50;;;;;;;13.95;7.95;;;;;;;;;;5087363;28;20105;-71
2023/02/17 10:39:25;;;;;;;7.32;5.45;;;;;;;;;;5101196;28;20028;-70
2023/02/17 10:41:51;;;;;;;6.65;5.80;;;;;;;;;;5088551;28;20116;-72
2023/02/17 10:44:19;;;;;;;12.80;9.60;;;;;;;;;;5096968;28;20040;-70
2023/02/17 10:46:47;;;;;;;13.15;9.60;;;;;;;;;;5101198;28;20038;-70
2023/02/17 10:49:20;;;;;;;14.10;9.32;;;;;;;;;;5091347;28;20032;-70
2023/02/17 10:51:46;;;;;;;8.70;7.85;;;;;;;;;;5091210;28;20047;-71
2023/02/17 10:54:41;;;;;;;9.63;6.93;;;;;;;;;;5087045;28;20058;-71
2023/02/17 10:57:08;;;;;;;4.50;4.10;;;;;;;;;;5081929;28;20759;-71
2023/02/17 10:59:40;;;;;;;12.50;9.50;;;;;;;;;;5103454;28;20066;-71
2023/02/17 11:02:24;;;;;;;15.65;11.18;;;;;;;;;;5106592;28;20031;-71
2023/02/17 11:04:51;;;;;;;7.40;6.63;;;;;;;;;;5102223;28;20032;-71
2023/02/17 11:07:18;;;;;;;10.90;8.80;;;;;;;;;;5086213;28;20040;-70
2023/02/17 11:09:48;;;;;;;11.15;10.05;;;;;;;;;;5085590;28;20512;-70
2023/02/17 11:12:20;;;;;;;8.90;7.93;;;;;;;;;;5084828;28;20039;-70
2023/02/17 11:14:50;;;;;;;6.40;5.78;;;;;;;;;;5085613;28;20027;-70
2023/02/17 11:17:25;;;;;;;7.63;6.88;;;;;;;;;;5086537;28;20039;-70
2023/02/17 11:19:55;;;;;;;12.45;8.60;;;;;;;;;;5089180;28;20089;-70
2023/02/17 11:22:29;;;;;;;8.15;6.93;;;;;;;;;;5084919;28;20621;-70
2023/02/17 11:24:58;;;;;;;6.22;5.70;;;;;;;;;;5102343;28;20062;-70
2023/02/17 11:27:25;;;;;;;8.57;7.68;;;;;;;;;;5087410;28;20040;-70
2023/02/17 11:29:51;;;;;;;12.70;10.77;;;;;;;;;;5101405;28;20027;-71
2023/02/17 11:32:18;;;;;;;8.02;6.35;;;;;;;;;;5109038;28;20098;-71
2023/02/17 11:34:54;;;;;;;10.55;6.78;;;;;;;;;;5098758;28;20027;-71
2023/02/17 11:37:20;;;;;;;9.55;6.22;;;;;;;;;;5089468;28;20063;-70
2023/02/17 11:39:47;;;;;;;9.07;6.72;;;;;;;;;;5126427;28;20593;-71
2023/02/17 11:42:23;;;;;;;6.57;6.00;;;;;;;;;;5128360;28;20039;-71
2023/02/17 11:44:49;;;;;;;8.05;6.45;;;;;;;;;;5108809;28;20031;-70
2023/02/17 11:47:21;;;;;;;10.13;6.88;;;;;;;;;;5106448;28;20035;-71
2023/02/17 11:49:46;;;;;;;;;;;;;;;;;;5108385;28;20031;-70
2023/02/17 11:52:23;;;;;;;8.80;4.88;;;;;;;;;;5127929;28;20346;-70
2023/02/17 11:54:58;;;;;;;10.55;9.40;;;;;;;;;;5108794;28;20030;-70
2023/02/17 11:57:39;;;;;;;7.43;6.03;;;;;;;;;;5099388;28;20034;-70
2023/02/17 12:00:18;;;;;;;8.30;6.22;;;;;;;;;;5110368;28;20038;-70
2023/02/17 12:02:49;;;;;;;6.05;5.57;;;;;;;;;;5094246;28;20582;-69
2023/02/17 12:05:15;;;;;;;7.38;6.50;;;;;;;;;;5114400;28;20023;-69
2023/02/17 12:07:41;;;;;;;10.82;9.25;;;;;;;;;;5076677;28;20047;-69
2023/02/17 12:10:27;;;;;;;9.10;7.38;;;;;;;;;;5128571;28;20034;-71
2023/02/17 12:12:53;;;;;;;10.27;8.45;;;;;;;;;;5089845;28;20038;-71
2023/02/17 12:15:25;;;;;;;12.80;9.80;;;;;;;;;;5108713;28;20081;-71
2023/02/17 12:17:54;;;;;;;10.80;8.82;;;;;;;;;;5085036;28;20035;-71
2023/02/17 12:20:32;;;;;;;9.98;8.35;;;;;;;;;;5112625;28;20032;-70
2023/02/17 12:23:14;;;;;;;8.73;7.65;;;;;;;;;;5101120;28;20031;-71
2023/02/17 12:25:48;;;;;;;7.18;6.60;;;;;;;;;;5106898;28;20067;-71
2023/02/17 12:28:24;;;;;;;7.07;5.43;;;;;;;;;;5087843;27;20045;-71
2023/02/17 12:31:03;;;;;;;8.07;7.28;;;;;;;;;;5099713;27;20043;-70
2023/02/17 12:33:40;;;;;;;7.13;5.85;;;;;;;;;;5102749;27;20503;-70
2023/02/17 12:36:09;;;;;;;6.95;6.25;;;;;;;;;;5104496;27;20034;-70
2023/02/17 12:38:38;;;;;;;8.68;7.82;;;;;;;;;;5093908;27;20046;-70
2023/02/17 12:41:06;;;;;;;9.50;7.90;;;;;;;;;;5105614;27;20035;-70
2023/02/17 12:43:36;;;;;;;12.93;10.27;;;;;;;;;;5106128;27;20129;-69
2023/02/17 12:46:02;;;;;;;18.15;11.82;;;;;;;;;;5109416;27;20039;-71
2023/02/17 12:48:48;;;;;;;11.05;7.45;;;;;;;;;;5096898;27;21706;-71
2023/02/17 12:51:35;;;;;;;10.32;8.25;;;;;;;;;;5115141;27;20047;-72
2023/02/17 12:54:17;;;;;;;18.27;10.93;;;;;;;;;;5107551;27;20558;-72
2023/02/17 12:56:47;;;;;;;6.78;6.07;;;;;;;;;;5107452;27;21003;-71
2023/02/17 12:59:14;;;;;;;11.70;9.27;;;;;;;;;;5107998;27;20039;-71
2023/02/17 13:01:44;;;;;;;10.27;7.53;;;;;;;;;;5107143;28;20038;-71
2023/02/17 13:04:11;;;;;;;10.88;7.72;;;;;;;;;;5069685;27;20042;-71
2023/02/17 13:06:38;;;;;;;8.55;7.18;;;;;;;;;;5088191;28;20594;-71
2023/02/17 13:09:14;;;;;;;13.73;9.18;;;;;;;;;;5089775;28;20055;-71
2023/02/17 13:11:40;;;;;;;8.90;7.85;;;;;;;;;;5109059;28;20036;-71
2023/02/17 13:14:25;;;;;;;8.77;7.78;;;;;;;;;;5109376;28;20740;-71
2023/02/17 13:16:51;;;;;;;6.68;6.07;;;;;;;;;;5119327;27;20113;-71
2023/02/17 13:19:26;;;;;;;8.80;7.55;;;;;;;;;;5110642;27;20055;-71
2023/02/17 13:21:53;;;;;;;8.38;6.88;;;;;;;;;;5093140;27;20088;-71
2023/02/17 13:24:33;;;;;;;16.50;9.52;;;;;;;;;;5106999;27;20032;-71
2023/02/17 13:27:11;;;;;;;4.43;4.05;;;;;;;;;;5111360;27;20027;-71
2023/02/17 13:29:38;;;;;;;10.80;8.82;;;;;;;;;;5111741;27;20031;-71
2023/02/17 13:32:05;;;;;;;6.40;5.80;;;;;;;;;;5111492;27;20506;-71
2023/02/17 13:34:31;;;;;;;13.80;8.05;;;;;;;;;;5069519;27;20510;-71
2023/02/17 13:36:59;;;;;;;7.57;6.88;;;;;;;;;;5121528;27;20044;-72
2023/02/17 13:39:25;;;;;;;9.85;7.85;;;;;;;;;;5120808;27;20083;-72
2023/02/17 13:41:51;;;;;;;12.70;9.35;;;;;;;;;;5119072;27;20106;-73
2023/02/17 13:44:24;;;;;;;7.22;6.53;;;;;;;;;;5118082;27;20027;-71
2023/02/17 13:47:01;;;;;;;8.27;6.53;;;;;;;;;;5096825;28;20033;-71
2023/02/17 13:49:27;;;;;;;9.55;8.10;;;;;;;;;;5106752;27;20449;-71
2023/02/17 13:51:54;;;;;;;10.77;9.38;;;;;;;;;;5084888;27;20047;-71
2023/02/17 13:54:20;;;;;;;9.48;7.03;;;;;;;;;;5093471;27;20068;-71
2023/02/17 13:56:50;;;;;;;11.70;9.32;;;;;;;;;;5110782;28;20445;-72
2023/02/17 13:59:17;;;;;;;8.15;6.57;;;;;;;;;;5115418;27;20083;-71
2023/02/17 14:01:44;;;;;;;11.05;8.35;;;;;;;;;;5086594;27;20024;-72
2023/02/17 14:04:36;;;;;;;10.77;9.68;;;;;;;;;;5075691;27;20034;-71
2023/02/17 14:07:02;;;;;;;9.95;7.47;;;;;;;;;;5107790;27;20118;-71
2023/02/17 14:09:32;;;;;;;11.65;8.38;;;;;;;;;;5110199;27;20038;-71
2023/02/17 14:11:58;;;;;;;9.13;7.93;;;;;;;;;;5074911;28;20043;-71
2023/02/17 14:14:34;;;;;;;8.65;7.78;;;;;;;;;;5104225;27;20115;-71
2023/02/17 14:17:04;;;;;;;8.55;7.65;;;;;;;;;;5110354;27;20041;-72
2023/02/17 14:19:44;;;;;;;6.70;5.50;;;;;;;;;;5118966;27;20026;-71
2023/02/17 14:22:23;;;;;;;9.50;8.38;;;;;;;;;;5109516;27;20455;-71
2023/02/17 14:25:05;;;;;;;9.38;7.55;;;;;;;;;;5119006;27;20495;-76
2023/02/17 14:27:59;;;;;;;8.73;7.80;;;;;;;;;;5100728;27;20035;-72
2023/02/17 14:30:35;;;;;;;10.23;8.70;;;;;;;;;;5121755;27;20066;-71
2023/02/17 14:33:02;;;;;;;6.20;5.60;;;;;;;;;;5094427;27;20159;-72
2023/02/17 14:35:28;;;;;;;10.02;6.40;;;;;;;;;;5095571;27;20050;-71
2023/02/17 14:37:54;;;;;;;11.75;8.48;;;;;;;;;;5125365;27;20034;-72
2023/02/17 14:40:22;;;;;;;8.07;7.15;;;;;;;;;;5088124;27;20035;-71
2023/02/17 14:42:48;;;;;;;11.15;7.90;;;;;;;;;;5063487;27;20411;-72
2023/02/17 14:45:14;;;;;;;10.00;7.50;;;;;;;;;;5090214;27;20039;-71